createdAt,value
2022-10-23T00:01:13.512Z,14.65
2022-10-23T00:03:41.145Z,12.40
2022-10-23T00:06:09.374Z,14.83
2022-10-23T00:08:37.003Z,16.25
2022-10-23T00:11:08.728Z,10.97
2022-10-23T00:13:36.798Z,18.17
2022-10-23T00:16:06.591Z,11.23
2022-10-23T00:18:34.448Z,15.00
2022-10-23T00:21:02.496Z,14.43
2022-10-23T00:23:30.142Z,16.52
2022-10-23T00:25:57.770Z,16.90
2022-10-23T00:28:25.464Z,15.57
2022-10-23T00:30:53.393Z,16.53
2022-10-23T00:33:22.393Z,12.77
2022-10-23T00:35:49.980Z,12.67
2022-10-23T00:38:17.582Z,15.90
2022-10-23T00:40:47.060Z,14.63
2022-10-23T00:43:19.272Z,13.20
2022-10-23T00:45:47.402Z,17.30
2022-10-23T00:48:15.968Z,13.40
2022-10-23T00:50:45.638Z,17.25
2022-10-23T00:53:15.032Z,13.57
2022-10-23T00:55:46.678Z,13.43
2022-10-23T00:58:15.001Z,14.77
2022-10-23T01:00:45.849Z,16.02
2022-10-23T01:03:15.476Z,14.83
2022-10-23T01:05:50.337Z,10.93
2022-10-23T01:08:27.222Z,17.50
2022-10-23T01:11:03.693Z,16.53
2022-10-23T01:13:38.668Z,13.83
2022-10-23T01:16:14.032Z,15.50
2022-10-23T01:18:47.094Z,13.67
2022-10-23T01:21:19.957Z,12.87
2022-10-23T01:24:13.227Z,17.93
2022-10-23T01:27:04.268Z,16.60
2022-10-23T01:29:39.721Z,12.63
2022-10-23T01:32:13.975Z,11.63
2022-10-23T01:34:48.617Z,16.63
2022-10-23T01:37:21.996Z,16.57
2022-10-23T01:39:53.313Z,16.30
2022-10-23T01:42:25.263Z,15.40
2022-10-23T01:45:00.458Z,12.83
2022-10-23T01:47:31.706Z,23.27
2022-10-23T01:50:01.023Z,13.47
2022-10-23T01:52:28.815Z,14.47
2022-10-23T01:55:00.665Z,17.07
2022-10-23T01:57:32.155Z,14.97
2022-10-23T02:00:05.130Z,13.67
2022-10-23T02:02:34.723Z,15.00
2022-10-23T02:05:07.632Z,14.07
2022-10-23T02:07:36.197Z,14.17
2022-10-23T02:10:04.824Z,14.52
2022-10-23T02:12:40.891Z,16.30
2022-10-23T02:15:15.106Z,18.90
2022-10-23T02:17:51.752Z,13.93
2022-10-23T02:20:25.660Z,17.07
2022-10-23T02:23:03.173Z,12.63
2022-10-23T02:25:35.861Z,18.07
2022-10-23T02:28:09.277Z,13.20
2022-10-23T02:30:42.958Z,20.53
2022-10-23T02:33:13.249Z,14.73
2022-10-23T02:35:41.145Z,19.10
2022-10-23T02:38:34.426Z,13.93
2022-10-23T02:41:14.445Z,13.33
2022-10-23T02:43:50.254Z,10.70
2022-10-23T02:46:26.203Z,17.30
2022-10-23T02:49:02.938Z,13.90
2022-10-23T02:51:38.824Z,14.67
2022-10-23T02:54:09.402Z,17.47
2022-10-23T02:56:44.243Z,16.33
2022-10-23T02:59:21.322Z,11.17
2022-10-23T03:01:54.178Z,9.30
2022-10-23T03:04:25.761Z,14.63
2022-10-23T03:06:53.600Z,13.23
2022-10-23T03:09:21.304Z,17.40
2022-10-23T03:11:48.891Z,17.07
2022-10-23T03:14:16.492Z,14.80
2022-10-23T03:16:44.124Z,18.03
2022-10-23T03:19:13.984Z,16.67
2022-10-23T03:21:41.527Z,15.67
2022-10-23T03:24:09.448Z,11.57
2022-10-23T03:26:37.042Z,9.30
2022-10-23T03:29:04.661Z,15.20
2022-10-23T03:31:32.278Z,11.87
2022-10-23T03:34:00.543Z,14.30
2022-10-23T03:36:29.565Z,14.00
2022-10-23T03:39:00.046Z,16.67
2022-10-23T03:41:27.676Z,20.33
2022-10-23T03:43:55.279Z,18.70
2022-10-23T03:46:22.950Z,15.43
2022-10-23T03:48:50.527Z,19.37
2022-10-23T03:51:18.180Z,14.63
2022-10-23T03:53:47.273Z,20.90
2022-10-23T03:56:15.001Z,15.40
2022-10-23T03:58:42.620Z,20.10
2022-10-23T04:01:10.316Z,16.10
2022-10-23T04:03:38.046Z,19.13
2022-10-23T04:06:06.017Z,15.67
2022-10-23T04:08:33.625Z,17.92
2022-10-23T04:11:02.658Z,15.30
2022-10-23T04:13:30.380Z,16.63
2022-10-23T04:15:57.933Z,20.27
2022-10-23T04:18:25.707Z,11.23
2022-10-23T04:20:53.990Z,16.50
2022-10-23T04:23:21.762Z,15.98
2022-10-23T04:25:49.327Z,20.63
2022-10-23T04:28:18.232Z,18.50
2022-10-23T04:30:45.789Z,12.10
2022-10-23T04:33:13.447Z,17.83
2022-10-23T04:35:41.076Z,16.87
2022-10-23T04:38:08.709Z,17.97
2022-10-23T04:40:36.319Z,21.23
2022-10-23T04:43:04.335Z,15.40
2022-10-23T04:45:33.386Z,12.63
2022-10-23T04:48:00.940Z,15.37
2022-10-23T04:50:28.574Z,13.73
2022-10-23T04:52:56.891Z,14.33
2022-10-23T04:55:25.589Z,13.60
2022-10-23T04:57:53.586Z,11.82
2022-10-23T05:00:21.315Z,13.43
2022-10-23T05:02:50.213Z,13.17
2022-10-23T05:05:17.871Z,17.33
2022-10-23T05:07:45.700Z,14.83
2022-10-23T05:10:13.538Z,16.00
2022-10-23T05:12:41.144Z,16.47
2022-10-23T05:15:09.067Z,17.13
2022-10-23T05:17:41.616Z,19.73
2022-10-23T05:20:14.899Z,23.23
2022-10-23T05:22:45.426Z,19.80
2022-10-23T05:25:13.794Z,30.90
2022-10-23T05:27:41.729Z,24.85
2022-10-23T05:30:10.876Z,25.90
2022-10-23T05:32:39.096Z,24.23
2022-10-23T05:35:10.110Z,17.42
2022-10-23T05:37:42.595Z,18.90
2022-10-23T05:40:11.411Z,16.30
2022-10-23T05:42:40.922Z,20.30
2022-10-23T05:45:10.646Z,17.93
2022-10-23T05:47:38.215Z,18.73
2022-10-23T05:50:06.403Z,15.53
2022-10-23T05:52:33.976Z,16.25
2022-10-23T05:55:02.924Z,15.47
2022-10-23T05:57:33.579Z,16.50
2022-10-23T06:00:01.181Z,16.97
2022-10-23T06:02:29.129Z,17.30
2022-10-23T06:04:56.801Z,12.93
2022-10-23T06:07:25.583Z,14.43
2022-10-23T06:14:51.865Z,13.77
2022-10-23T06:17:19.602Z,13.60
2022-10-23T06:19:47.194Z,15.23
2022-10-23T06:22:14.897Z,12.60
2022-10-23T06:24:42.508Z,16.40
2022-10-23T06:27:10.094Z,12.07
2022-10-23T06:29:39.605Z,15.25
2022-10-23T06:32:07.143Z,14.87
2022-10-23T06:34:35.047Z,13.07
2022-10-23T06:37:02.605Z,13.75
2022-10-23T06:39:32.144Z,11.67
2022-10-23T06:42:00.049Z,15.63
2022-10-23T06:44:27.624Z,14.17
2022-10-23T06:46:56.562Z,11.17
2022-10-23T06:49:24.318Z,10.93
2022-10-23T06:51:51.900Z,10.67
2022-10-23T06:54:19.428Z,10.80
2022-10-23T06:56:47.039Z,12.93
2022-10-23T06:59:14.625Z,13.30
2022-10-23T07:01:42.348Z,12.27
2022-10-23T07:04:13.589Z,9.95
2022-10-23T07:06:41.497Z,15.73
2022-10-23T07:09:09.669Z,12.90
2022-10-23T07:11:38.129Z,14.50
2022-10-23T07:14:05.723Z,13.73
2022-10-23T07:16:33.352Z,13.03
2022-10-23T07:19:01.832Z,12.33
2022-10-23T07:21:32.236Z,14.80
2022-10-23T07:23:59.866Z,15.03
2022-10-23T07:26:28.120Z,12.47
2022-10-23T07:28:55.912Z,14.07
2022-10-23T07:31:27.211Z,17.45
2022-10-23T07:33:55.878Z,11.83
2022-10-23T07:36:23.424Z,13.47
2022-10-23T07:38:53.091Z,13.20
2022-10-23T07:41:20.953Z,14.07
2022-10-23T07:43:48.599Z,13.02
2022-10-23T07:46:16.219Z,14.87
2022-10-23T07:48:43.785Z,16.13
2022-10-23T07:51:14.580Z,13.63
2022-10-23T07:53:43.299Z,13.43
2022-10-23T07:58:41.798Z,16.37
2022-10-23T08:01:17.980Z,12.20
2022-10-23T08:03:45.938Z,13.50
2022-10-23T08:06:13.760Z,10.60
2022-10-23T08:08:41.418Z,14.10
2022-10-23T08:11:11.691Z,16.17
2022-10-23T08:13:41.722Z,11.70
2022-10-23T08:16:09.396Z,10.97
2022-10-23T08:18:36.982Z,10.95
2022-10-23T08:21:05.582Z,12.33
2022-10-23T08:23:33.134Z,9.90
2022-10-23T08:26:02.024Z,10.47
2022-10-23T08:28:29.800Z,13.93
2022-10-23T08:30:59.205Z,11.60
2022-10-23T08:33:26.803Z,12.33
2022-10-23T08:35:54.405Z,15.87
2022-10-23T08:38:22.142Z,15.30
2022-10-23T08:40:50.518Z,10.03
2022-10-23T08:43:22.955Z,12.45
2022-10-23T08:45:53.667Z,13.63
2022-10-23T08:48:29.315Z,11.00
2022-10-23T08:51:00.406Z,10.57
2022-10-23T08:53:35.745Z,15.03
2022-10-23T08:56:07.891Z,14.70
2022-10-23T08:58:41.059Z,10.27
2022-10-23T09:01:31.535Z,15.80
2022-10-23T09:04:01.047Z,14.80
2022-10-23T09:06:36.276Z,10.00
2022-10-23T09:09:18.475Z,12.13
2022-10-23T09:11:54.789Z,9.37
2022-10-23T09:14:43.442Z,13.13
2022-10-23T09:17:23.982Z,9.67
2022-10-23T09:20:00.188Z,10.48
2022-10-23T09:22:28.756Z,8.90
2022-10-23T09:24:56.327Z,11.63
2022-10-23T09:27:24.007Z,8.05
2022-10-23T09:29:53.822Z,9.13
2022-10-23T09:32:32.741Z,9.15
2022-10-23T09:35:01.744Z,8.40
2022-10-23T09:37:31.156Z,7.63
2022-10-23T09:40:05.231Z,10.60
2022-10-23T09:42:32.910Z,7.72
2022-10-23T09:45:01.720Z,10.03
2022-10-23T09:47:29.309Z,8.45
2022-10-23T09:49:57.771Z,12.00
2022-10-23T09:52:33.183Z,10.65
2022-10-23T09:55:03.549Z,8.85
2022-10-23T09:57:36.876Z,8.93
2022-10-23T10:00:16.429Z,11.77
2022-10-23T10:02:45.040Z,7.63
2022-10-23T10:05:24.001Z,8.40
2022-10-23T10:08:03.724Z,8.68
2022-10-23T10:10:36.889Z,9.52
2022-10-23T10:13:16.142Z,7.47
2022-10-23T10:15:50.797Z,8.15
2022-10-23T10:18:27.904Z,12.73
2022-10-23T10:21:06.293Z,8.70
2022-10-23T10:23:43.187Z,9.45
2022-10-23T10:26:18.674Z,10.05
2022-10-23T10:28:59.905Z,10.07
2022-10-23T10:31:39.746Z,10.52
2022-10-23T10:34:15.405Z,7.20
2022-10-23T10:36:50.364Z,9.68
2022-10-23T10:39:29.313Z,7.38
2022-10-23T10:42:10.898Z,6.90
2022-10-23T10:45:05.719Z,8.90
2022-10-23T10:47:45.109Z,7.75
2022-10-23T10:50:20.286Z,8.40
2022-10-23T10:52:57.713Z,10.68
2022-10-23T10:55:33.290Z,10.27
2022-10-23T10:58:06.579Z,8.10
2022-10-23T11:00:35.371Z,7.78
2022-10-23T11:03:10.403Z,5.63
2022-10-23T11:05:42.728Z,5.72
2022-10-23T11:08:16.044Z,8.52
2022-10-23T11:10:47.342Z,7.20
2022-10-23T11:13:25.986Z,6.22
2022-10-23T11:15:58.991Z,9.25
2022-10-23T11:18:29.535Z,5.78
2022-10-23T11:21:08.463Z,6.78
2022-10-23T11:23:54.370Z,12.00
2022-10-23T11:26:35.922Z,8.15
2022-10-23T11:29:41.407Z,5.97
2022-10-23T11:32:27.598Z,7.95
2022-10-23T11:35:11.597Z,6.00
2022-10-23T11:37:39.266Z,5.57
2022-10-23T11:40:22.793Z,7.67
2022-10-23T11:42:52.412Z,5.80
2022-10-23T11:45:34.787Z,8.68
2022-10-23T11:48:04.955Z,7.15
2022-10-23T11:50:50.430Z,5.60
2022-10-23T11:53:27.948Z,7.28
2022-10-23T11:56:00.672Z,7.03
2022-10-23T11:58:42.284Z,5.68
2022-10-23T12:01:25.782Z,5.65
2022-10-23T12:03:57.137Z,7.13
2022-10-23T12:06:28.471Z,6.80
2022-10-23T12:09:00.946Z,6.13
2022-10-23T12:11:44.499Z,6.10
2022-10-23T12:14:31.685Z,7.97
2022-10-23T12:16:59.747Z,7.88
2022-10-23T12:19:29.291Z,6.95
2022-10-23T12:22:01.811Z,7.13
2022-10-23T12:24:56.561Z,9.73
2022-10-23T12:27:35.066Z,6.35
2022-10-23T12:33:14.475Z,4.57
2022-10-23T12:36:22.485Z,5.75
2022-10-23T12:38:50.693Z,4.88
2022-10-23T12:41:26.428Z,6.00
2022-10-23T12:43:56.786Z,6.07
2022-10-23T12:46:33.839Z,6.57
2022-10-23T12:49:04.431Z,5.38
2022-10-23T12:51:34.050Z,5.18
2022-10-23T12:54:02.624Z,3.75
2022-10-23T12:59:05.000Z,6.18
2022-10-23T13:01:36.306Z,5.78
2022-10-23T13:04:14.040Z,3.25
2022-10-23T13:06:41.856Z,6.07
2022-10-23T13:09:22.783Z,4.60
2022-10-23T13:11:51.844Z,3.72
2022-10-23T13:14:34.574Z,6.13
2022-10-23T13:17:05.355Z,5.03
2022-10-23T13:19:33.634Z,5.25
2022-10-23T13:22:01.987Z,9.93
2022-10-23T13:24:30.941Z,5.82
2022-10-23T13:26:59.051Z,5.82
2022-10-23T13:29:29.817Z,5.20
2022-10-23T13:31:58.018Z,9.05
2022-10-23T13:34:28.763Z,5.60
2022-10-23T13:36:59.870Z,10.02
2022-10-23T13:39:30.633Z,6.40
2022-10-23T13:42:02.385Z,4.70
2022-10-23T13:44:30.004Z,4.65
2022-10-23T13:46:57.843Z,7.53
2022-10-23T13:49:26.744Z,8.10
2022-10-23T13:51:56.313Z,6.60
2022-10-23T13:54:25.604Z,7.85
2022-10-23T13:56:54.559Z,5.18
2022-10-23T13:59:22.674Z,6.30
2022-10-23T14:01:51.879Z,11.70
2022-10-23T14:04:20.212Z,4.45
2022-10-23T14:06:49.174Z,5.63
2022-10-23T14:09:19.297Z,5.47
2022-10-23T14:11:47.703Z,6.45
2022-10-23T14:14:15.293Z,7.85
2022-10-23T14:16:42.949Z,5.20
2022-10-23T14:19:11.800Z,11.65
2022-10-23T14:21:39.414Z,4.15
2022-10-23T14:24:09.661Z,8.10
2022-10-23T14:26:37.997Z,3.88
2022-10-23T14:29:09.753Z,10.52
2022-10-23T14:31:39.164Z,5.25
2022-10-23T14:34:06.760Z,4.68
2022-10-23T14:36:43.480Z,9.00
2022-10-23T14:39:19.551Z,8.70
2022-10-23T14:41:47.116Z,5.68
2022-10-23T14:44:14.803Z,7.20
2022-10-23T14:46:42.466Z,10.07
2022-10-23T14:49:10.033Z,7.00
2022-10-23T14:51:37.595Z,7.90
2022-10-23T14:54:07.344Z,6.23
2022-10-23T14:56:38.129Z,6.88
2022-10-23T14:59:06.496Z,4.18
2022-10-23T15:01:36.897Z,5.40
2022-10-23T15:04:05.153Z,6.03
2022-10-23T15:06:33.747Z,5.90
2022-10-23T15:09:02.132Z,11.77
2022-10-23T15:11:29.831Z,9.95
2022-10-23T15:14:00.418Z,7.25
2022-10-23T15:16:28.189Z,6.95
2022-10-23T15:18:55.792Z,6.18
2022-10-23T15:21:23.572Z,3.63
2022-10-23T15:23:52.913Z,10.13
2022-10-23T15:26:23.060Z,6.60
2022-10-23T15:28:54.333Z,5.35
2022-10-23T15:31:41.937Z,7.90
2022-10-23T15:34:11.450Z,5.80
2022-10-23T15:36:39.306Z,7.28
2022-10-23T15:39:08.842Z,9.68
2022-10-23T15:41:40.574Z,8.57
2022-10-23T15:44:09.909Z,6.72
2022-10-23T15:46:38.880Z,7.07
2022-10-23T15:49:08.412Z,3.97
2022-10-23T15:51:37.527Z,7.90
2022-10-23T15:54:06.182Z,5.32
2022-10-23T15:59:01.296Z,7.27
2022-10-23T16:01:29.160Z,5.20
2022-10-23T16:03:58.219Z,5.75
2022-10-23T16:06:25.809Z,7.60
2022-10-23T16:11:23.719Z,7.38
2022-10-23T16:13:51.556Z,10.40
2022-10-23T16:16:19.481Z,10.80
2022-10-23T16:18:47.408Z,6.30
2022-10-23T16:21:20.069Z,9.05
2022-10-23T16:23:48.064Z,7.60
2022-10-23T16:26:16.723Z,4.60
2022-10-23T16:31:19.992Z,11.63
2022-10-23T16:33:48.670Z,6.25
2022-10-23T16:36:18.536Z,8.95
2022-10-23T16:38:46.226Z,5.50
2022-10-23T16:41:14.243Z,5.07
2022-10-23T16:43:41.957Z,9.60
2022-10-23T16:46:13.483Z,5.65
2022-10-23T16:48:42.140Z,4.55
2022-10-23T16:56:09.918Z,6.25
2022-10-23T16:58:40.742Z,8.55
2022-10-23T17:01:10.833Z,8.15
2022-10-23T17:03:41.166Z,6.68
2022-10-23T17:06:11.557Z,7.72
2022-10-23T17:08:40.660Z,7.60
2022-10-23T17:11:10.408Z,5.72
2022-10-23T17:13:40.491Z,6.00
2022-10-23T17:16:10.552Z,8.38
2022-10-23T17:18:42.862Z,5.45
2022-10-23T17:21:11.882Z,6.60
2022-10-23T17:23:41.744Z,8.90
2022-10-23T17:26:10.711Z,10.52
2022-10-23T17:28:41.540Z,10.70
2022-10-23T17:31:14.504Z,6.50
2022-10-23T17:33:42.716Z,11.25
2022-10-23T17:36:11.236Z,11.75
2022-10-23T17:41:09.401Z,14.70
2022-10-23T17:43:37.905Z,10.10
2022-10-23T17:46:06.124Z,7.78
2022-10-23T17:48:35.043Z,7.47
2022-10-23T17:51:04.178Z,5.93
2022-10-23T17:53:31.869Z,6.72
2022-10-23T17:56:02.341Z,11.63
2022-10-23T17:58:29.974Z,6.32
2022-10-23T18:00:57.821Z,6.20
2022-10-23T18:03:25.536Z,8.95
2022-10-23T18:05:53.134Z,7.68
2022-10-23T18:08:20.749Z,7.82
2022-10-23T18:10:48.318Z,9.43
2022-10-23T18:13:17.244Z,11.40
2022-10-23T18:15:44.807Z,7.78
2022-10-23T18:18:12.364Z,12.27
2022-10-23T18:20:41.026Z,6.10
2022-10-23T18:25:36.464Z,8.20
2022-10-23T18:28:04.171Z,9.98
2022-10-23T18:30:33.163Z,5.67
2022-10-23T18:33:00.757Z,9.55
2022-10-23T18:35:28.302Z,8.32
2022-10-23T18:37:55.879Z,8.93
2022-10-23T18:40:25.670Z,6.00
2022-10-23T18:42:55.917Z,10.30
2022-10-23T18:45:23.516Z,10.13
2022-10-23T18:47:52.474Z,7.40
2022-10-23T18:50:20.187Z,8.05
2022-10-23T18:52:48.059Z,9.05
2022-10-23T18:55:15.803Z,8.27
2022-10-23T18:57:43.637Z,7.63
2022-10-23T19:00:13.445Z,8.88
2022-10-23T19:02:41.350Z,6.78
2022-10-23T19:05:10.678Z,8.93
2022-10-23T19:07:38.741Z,7.22
2022-10-23T19:10:07.611Z,8.25
2022-10-23T19:12:35.170Z,9.40
2022-10-23T19:15:02.738Z,7.30
2022-10-23T19:17:33.142Z,7.10
2022-10-23T19:20:03.984Z,8.05
2022-10-23T19:22:35.767Z,13.00
2022-10-23T19:25:10.190Z,9.98
2022-10-23T19:27:38.886Z,8.90
2022-10-23T19:32:41.420Z,14.88
2022-10-23T19:35:10.581Z,8.05
2022-10-23T19:37:39.854Z,8.95
2022-10-23T19:40:09.537Z,9.95
2022-10-23T19:42:39.923Z,7.13
2022-10-23T19:45:10.001Z,8.63
2022-10-23T19:47:38.056Z,7.32
2022-10-23T19:50:07.379Z,6.85
2022-10-23T19:52:35.037Z,9.45
2022-10-23T19:55:05.455Z,7.47
2022-10-23T19:57:34.691Z,6.93
2022-10-23T20:00:04.361Z,7.78
2022-10-23T20:05:04.937Z,11.45
2022-10-23T20:07:32.637Z,10.07
2022-10-23T20:10:00.421Z,9.20
2022-10-23T20:12:29.391Z,7.53
2022-10-23T20:14:57.008Z,10.80
2022-10-23T20:17:25.247Z,10.55
2022-10-23T20:19:53.595Z,8.77
2022-10-23T20:22:21.249Z,10.02
2022-10-23T20:24:48.882Z,10.60
2022-10-23T20:27:18.429Z,7.20
2022-10-23T20:29:48.575Z,7.75
2022-10-23T20:32:16.697Z,9.50
2022-10-23T20:34:44.263Z,8.23
2022-10-23T20:37:11.859Z,7.65
2022-10-23T20:39:39.803Z,10.65
2022-10-23T20:42:08.288Z,9.20
2022-10-23T20:44:36.202Z,9.48
2022-10-23T20:47:05.191Z,10.90
2022-10-23T20:49:32.756Z,12.60
2022-10-23T20:52:00.353Z,14.15
2022-10-23T20:54:28.764Z,9.20
2022-10-23T20:56:57.489Z,6.63
2022-10-23T21:01:55.217Z,8.20
2022-10-23T21:04:27.652Z,8.40
2022-10-23T21:07:12.820Z,5.73
2022-10-23T21:09:40.868Z,3.47
2022-10-23T21:12:09.726Z,5.53
2022-10-23T21:14:37.557Z,9.17
2022-10-23T21:17:05.452Z,6.00
2022-10-23T21:19:34.482Z,7.93
2022-10-23T21:22:02.073Z,4.07
2022-10-23T21:24:29.673Z,6.57
2022-10-23T21:26:57.231Z,6.30
2022-10-23T21:29:24.834Z,7.10
2022-10-23T21:31:53.602Z,5.50
2022-10-23T21:34:21.264Z,4.60
2022-10-23T21:39:37.887Z,4.67
2022-10-23T21:42:05.831Z,3.00
2022-10-23T21:44:33.738Z,5.78
2022-10-23T21:47:01.364Z,2.58
2022-10-23T21:49:28.955Z,4.77
2022-10-23T21:51:57.836Z,5.13
2022-10-23T21:54:25.421Z,3.53
2022-10-23T21:56:54.226Z,4.53
2022-10-23T21:59:24.158Z,5.70
2022-10-23T22:01:52.480Z,3.37
2022-10-23T22:04:22.015Z,4.30
2022-10-23T22:06:50.732Z,6.67
2022-10-23T22:11:49.766Z,6.60
2022-10-23T22:14:17.427Z,4.63
2022-10-23T22:16:45.096Z,7.20
2022-10-23T22:19:14.589Z,5.50
2022-10-23T22:21:43.066Z,4.27
2022-10-23T22:24:10.991Z,5.85
2022-10-23T22:26:41.722Z,5.38
2022-10-23T22:29:11.172Z,3.03
2022-10-23T22:31:44.061Z,4.70
2022-10-23T22:34:34.161Z,6.60
2022-10-23T22:37:08.056Z,6.73
2022-10-23T22:39:35.653Z,5.22
2022-10-23T22:42:04.831Z,6.10
2022-10-23T22:44:32.424Z,4.80
2022-10-23T22:46:59.961Z,6.53
2022-10-23T22:49:27.490Z,5.93
2022-10-23T22:51:55.046Z,5.27
2022-10-23T22:54:22.641Z,5.37
2022-10-23T22:56:50.198Z,5.00
2022-10-23T22:59:19.117Z,6.27
2022-10-23T23:01:48.152Z,7.77
2022-10-23T23:04:38.396Z,6.83
2022-10-23T23:07:06.194Z,4.90
2022-10-23T23:09:36.730Z,4.20
2022-10-23T23:12:04.706Z,6.57
2022-10-23T23:14:33.904Z,6.25
2022-10-23T23:17:01.520Z,7.43
2022-10-23T23:19:29.090Z,2.90
2022-10-23T23:21:57.534Z,6.17
2022-10-23T23:24:25.894Z,9.30
2022-10-23T23:26:53.928Z,7.30
2022-10-23T23:29:21.717Z,6.10
2022-10-23T23:31:50.750Z,5.82
2022-10-23T23:34:18.306Z,9.47
2022-10-23T23:36:45.840Z,4.50
2022-10-23T23:39:13.601Z,8.33
2022-10-23T23:41:41.170Z,7.60
2022-10-23T23:44:09.041Z,6.03
2022-10-23T23:46:36.555Z,11.43
2022-10-23T23:49:05.533Z,8.23
2022-10-23T23:51:33.134Z,7.40
2022-10-23T23:54:00.711Z,5.00
2022-10-23T23:56:28.610Z,8.77
2022-10-23T23:58:56.225Z,7.72
